sensor_id;sensor_type;location;lat;lon;timestamp;P1;durP1;ratioP1;P2;durP2;ratioP2
5345;SDS011;2695;49.444;11.054;2022-12-10T00:01:35;20.87;;;13.40;;
5345;SDS011;2695;49.444;11.054;2022-12-10T00:04:04;22.00;;;13.27;;
5345;SDS011;2695;49.444;11.054;2022-12-10T00:06:33;23.83;;;13.33;;
5345;SDS011;2695;49.444;11.054;2022-12-10T00:09:05;20.57;;;12.97;;
5345;SDS011;2695;49.444;11.054;2022-12-10T00:11:34;24.27;;;12.90;;
5345;SDS011;2695;49.444;11.054;2022-12-10T00:14:02;22.17;;;12.80;;
5345;SDS011;2695;49.444;11.054;2022-12-10T00:16:30;22.93;;;13.30;;
5345;SDS011;2695;49.444;11.054;2022-12-10T00:18:59;29.33;;;15.47;;
5345;SDS011;2695;49.444;11.054;2022-12-10T00:21:29;19.90;;;12.50;;
5345;SDS011;2695;49.444;11.054;2022-12-10T00:24:00;23.23;;;13.37;;
5345;SDS011;2695;49.444;11.054;2022-12-10T00:26:29;24.60;;;13.27;;
5345;SDS011;2695;49.444;11.054;2022-12-10T00:28:59;26.00;;;14.33;;
5345;SDS011;2695;49.444;11.054;2022-12-10T00:31:29;25.13;;;14.40;;
5345;SDS011;2695;49.444;11.054;2022-12-10T00:33:59;24.57;;;13.53;;
5345;SDS011;2695;49.444;11.054;2022-12-10T00:36:30;25.30;;;13.10;;
5345;SDS011;2695;49.444;11.054;2022-12-10T00:39:01;24.70;;;14.27;;
5345;SDS011;2695;49.444;11.054;2022-12-10T00:41:30;26.83;;;13.93;;
5345;SDS011;2695;49.444;11.054;2022-12-10T00:43:58;20.27;;;13.53;;
5345;SDS011;2695;49.444;11.054;2022-12-10T00:46:26;22.40;;;13.83;;
5345;SDS011;2695;49.444;11.054;2022-12-10T00:48:55;25.37;;;14.87;;
5345;SDS011;2695;49.444;11.054;2022-12-10T00:51:25;20.77;;;12.83;;
5345;SDS011;2695;49.444;11.054;2022-12-10T00:53:56;22.77;;;13.47;;
5345;SDS011;2695;49.444;11.054;2022-12-10T00:56:29;24.67;;;12.87;;
5345;SDS011;2695;49.444;11.054;2022-12-10T00:59:00;22.63;;;13.63;;
5345;SDS011;2695;49.444;11.054;2022-12-10T01:01:29;27.43;;;14.67;;
5345;SDS011;2695;49.444;11.054;2022-12-10T01:03:59;23.60;;;14.97;;
5345;SDS011;2695;49.444;11.054;2022-12-10T01:06:33;20.47;;;13.10;;
5345;SDS011;2695;49.444;11.054;2022-12-10T01:09:04;20.00;;;13.80;;
5345;SDS011;2695;49.444;11.054;2022-12-10T01:11:36;23.80;;;14.63;;
5345;SDS011;2695;49.444;11.054;2022-12-10T01:14:06;21.73;;;12.77;;
5345;SDS011;2695;49.444;11.054;2022-12-10T01:16:36;22.17;;;13.17;;
5345;SDS011;2695;49.444;11.054;2022-12-10T01:19:04;27.30;;;14.37;;
5345;SDS011;2695;49.444;11.054;2022-12-10T01:21:32;22.77;;;13.40;;
5345;SDS011;2695;49.444;11.054;2022-12-10T01:24:02;21.87;;;13.23;;
5345;SDS011;2695;49.444;11.054;2022-12-10T01:26:31;20.43;;;14.60;;
5345;SDS011;2695;49.444;11.054;2022-12-10T01:29:02;25.20;;;14.10;;
5345;SDS011;2695;49.444;11.054;2022-12-10T01:31:32;22.50;;;13.87;;
5345;SDS011;2695;49.444;11.054;2022-12-10T01:34:01;22.70;;;13.50;;
5345;SDS011;2695;49.444;11.054;2022-12-10T01:36:32;21.00;;;13.80;;
5345;SDS011;2695;49.444;11.054;2022-12-10T01:39:02;18.73;;;13.93;;
5345;SDS011;2695;49.444;11.054;2022-12-10T01:41:35;20.77;;;13.23;;
5345;SDS011;2695;49.444;11.054;2022-12-10T01:47:12;21.30;;;14.10;;
5345;SDS011;2695;49.444;11.054;2022-12-10T01:49:40;20.93;;;12.40;;
5345;SDS011;2695;49.444;11.054;2022-12-10T01:52:10;26.07;;;14.80;;
5345;SDS011;2695;49.444;11.054;2022-12-10T01:54:39;23.73;;;13.73;;
5345;SDS011;2695;49.444;11.054;2022-12-10T01:57:09;26.20;;;13.60;;
5345;SDS011;2695;49.444;11.054;2022-12-10T01:59:42;23.70;;;14.40;;
5345;SDS011;2695;49.444;11.054;2022-12-10T02:02:15;18.97;;;13.27;;
5345;SDS011;2695;49.444;11.054;2022-12-10T02:04:49;22.80;;;13.57;;
5345;SDS011;2695;49.444;11.054;2022-12-10T02:07:26;20.90;;;12.50;;
5345;SDS011;2695;49.444;11.054;2022-12-10T02:10:02;24.10;;;14.03;;
5345;SDS011;2695;49.444;11.054;2022-12-10T02:12:37;25.27;;;13.93;;
5345;SDS011;2695;49.444;11.054;2022-12-10T02:15:13;23.80;;;14.83;;
5345;SDS011;2695;49.444;11.054;2022-12-10T02:17:45;21.23;;;13.40;;
5345;SDS011;2695;49.444;11.054;2022-12-10T02:20:18;25.03;;;13.97;;
5345;SDS011;2695;49.444;11.054;2022-12-10T02:22:50;20.90;;;13.50;;
5345;SDS011;2695;49.444;11.054;2022-12-10T02:25:22;21.80;;;13.30;;
5345;SDS011;2695;49.444;11.054;2022-12-10T02:27:58;21.67;;;13.13;;
5345;SDS011;2695;49.444;11.054;2022-12-10T02:30:31;23.63;;;13.33;;
5345;SDS011;2695;49.444;11.054;2022-12-10T02:33:02;20.97;;;13.87;;
5345;SDS011;2695;49.444;11.054;2022-12-10T02:35:33;21.70;;;12.80;;
5345;SDS011;2695;49.444;11.054;2022-12-10T02:38:06;22.37;;;13.00;;
5345;SDS011;2695;49.444;11.054;2022-12-10T02:40:41;22.97;;;13.00;;
5345;SDS011;2695;49.444;11.054;2022-12-10T02:43:12;20.23;;;12.97;;
5345;SDS011;2695;49.444;11.054;2022-12-10T02:45:42;22.17;;;12.53;;
5345;SDS011;2695;49.444;11.054;2022-12-10T02:48:11;22.53;;;14.27;;
5345;SDS011;2695;49.444;11.054;2022-12-10T02:50:40;25.30;;;13.97;;
5345;SDS011;2695;49.444;11.054;2022-12-10T02:53:09;20.30;;;13.27;;
5345;SDS011;2695;49.444;11.054;2022-12-10T02:55:40;21.90;;;13.73;;
5345;SDS011;2695;49.444;11.054;2022-12-10T02:58:26;22.27;;;13.90;;
5345;SDS011;2695;49.444;11.054;2022-12-10T03:01:05;19.43;;;13.20;;
5345;SDS011;2695;49.444;11.054;2022-12-10T03:03:39;23.30;;;14.30;;
5345;SDS011;2695;49.444;11.054;2022-12-10T03:06:12;28.73;;;13.80;;
5345;SDS011;2695;49.444;11.054;2022-12-10T03:08:45;19.97;;;12.40;;
5345;SDS011;2695;49.444;11.054;2022-12-10T03:11:17;28.63;;;15.40;;
5345;SDS011;2695;49.444;11.054;2022-12-10T03:13:50;27.03;;;14.43;;
5345;SDS011;2695;49.444;11.054;2022-12-10T03:16:24;22.33;;;13.70;;
5345;SDS011;2695;49.444;11.054;2022-12-10T03:18:58;22.60;;;13.70;;
5345;SDS011;2695;49.444;11.054;2022-12-10T03:21:30;22.67;;;13.87;;
5345;SDS011;2695;49.444;11.054;2022-12-10T03:24:00;22.30;;;14.57;;
5345;SDS011;2695;49.444;11.054;2022-12-10T03:26:28;22.23;;;13.07;;
5345;SDS011;2695;49.444;11.054;2022-12-10T03:28:58;24.50;;;14.40;;
5345;SDS011;2695;49.444;11.054;2022-12-10T03:31:32;26.97;;;14.43;;
5345;SDS011;2695;49.444;11.054;2022-12-10T03:34:02;21.57;;;14.40;;
5345;SDS011;2695;49.444;11.054;2022-12-10T03:36:31;21.00;;;13.30;;
5345;SDS011;2695;49.444;11.054;2022-12-10T03:38:59;23.03;;;14.03;;
5345;SDS011;2695;49.444;11.054;2022-12-10T03:41:28;25.20;;;14.93;;
5345;SDS011;2695;49.444;11.054;2022-12-10T03:43:57;28.00;;;15.10;;
5345;SDS011;2695;49.444;11.054;2022-12-10T03:46:27;23.80;;;14.93;;
5345;SDS011;2695;49.444;11.054;2022-12-10T03:48:59;27.30;;;13.33;;
5345;SDS011;2695;49.444;11.054;2022-12-10T03:51:27;23.60;;;14.73;;
5345;SDS011;2695;49.444;11.054;2022-12-10T03:53:56;22.93;;;13.60;;
5345;SDS011;2695;49.444;11.054;2022-12-10T03:56:24;22.57;;;14.10;;
5345;SDS011;2695;49.444;11.054;2022-12-10T03:58:52;24.23;;;12.93;;
5345;SDS011;2695;49.444;11.054;2022-12-10T04:01:20;21.43;;;14.23;;
5345;SDS011;2695;49.444;11.054;2022-12-10T04:03:48;26.30;;;14.10;;
5345;SDS011;2695;49.444;11.054;2022-12-10T04:06:18;25.23;;;14.00;;
5345;SDS011;2695;49.444;11.054;2022-12-10T04:08:46;21.77;;;13.50;;
5345;SDS011;2695;49.444;11.054;2022-12-10T04:11:23;19.50;;;12.50;;
5345;SDS011;2695;49.444;11.054;2022-12-10T04:13:52;22.83;;;13.63;;
5345;SDS011;2695;49.444;11.054;2022-12-10T04:16:37;22.03;;;14.03;;
5345;SDS011;2695;49.444;11.054;2022-12-10T04:19:07;22.50;;;13.50;;
5345;SDS011;2695;49.444;11.054;2022-12-10T04:21:39;26.23;;;15.67;;
5345;SDS011;2695;49.444;11.054;2022-12-10T04:24:26;26.23;;;13.20;;
5345;SDS011;2695;49.444;11.054;2022-12-10T04:27:13;24.07;;;15.37;;
5345;SDS011;2695;49.444;11.054;2022-12-10T04:29:46;27.00;;;15.77;;
5345;SDS011;2695;49.444;11.054;2022-12-10T04:32:14;22.97;;;12.90;;
5345;SDS011;2695;49.444;11.054;2022-12-10T04:34:43;24.37;;;13.40;;
5345;SDS011;2695;49.444;11.054;2022-12-10T04:37:12;23.63;;;13.43;;
5345;SDS011;2695;49.444;11.054;2022-12-10T04:39:42;22.43;;;13.73;;
5345;SDS011;2695;49.444;11.054;2022-12-10T04:42:10;26.73;;;13.47;;
5345;SDS011;2695;49.444;11.054;2022-12-10T04:44:38;22.10;;;13.93;;
5345;SDS011;2695;49.444;11.054;2022-12-10T04:47:07;21.10;;;13.10;;
5345;SDS011;2695;49.444;11.054;2022-12-10T04:49:37;23.87;;;14.10;;
5345;SDS011;2695;49.444;11.054;2022-12-10T04:52:06;21.23;;;13.30;;
5345;SDS011;2695;49.444;11.054;2022-12-10T04:54:36;21.90;;;13.20;;
5345;SDS011;2695;49.444;11.054;2022-12-10T04:57:04;27.30;;;13.30;;
5345;SDS011;2695;49.444;11.054;2022-12-10T04:59:34;26.57;;;13.77;;
5345;SDS011;2695;49.444;11.054;2022-12-10T05:02:02;24.57;;;13.73;;
5345;SDS011;2695;49.444;11.054;2022-12-10T05:04:30;26.40;;;13.17;;
5345;SDS011;2695;49.444;11.054;2022-12-10T05:06:59;21.90;;;14.30;;
5345;SDS011;2695;49.444;11.054;2022-12-10T05:09:27;24.37;;;12.67;;
5345;SDS011;2695;49.444;11.054;2022-12-10T05:11:56;23.17;;;13.20;;
5345;SDS011;2695;49.444;11.054;2022-12-10T05:14:24;24.93;;;14.30;;
5345;SDS011;2695;49.444;11.054;2022-12-10T05:16:52;23.30;;;14.20;;
5345;SDS011;2695;49.444;11.054;2022-12-10T05:19:20;25.63;;;14.73;;
5345;SDS011;2695;49.444;11.054;2022-12-10T05:21:49;24.00;;;14.23;;
5345;SDS011;2695;49.444;11.054;2022-12-10T05:24:35;21.57;;;12.77;;
5345;SDS011;2695;49.444;11.054;2022-12-10T05:27:06;27.93;;;16.87;;
5345;SDS011;2695;49.444;11.054;2022-12-10T05:29:34;20.83;;;13.60;;
5345;SDS011;2695;49.444;11.054;2022-12-10T05:32:02;22.57;;;12.83;;
5345;SDS011;2695;49.444;11.054;2022-12-10T05:34:31;26.80;;;14.10;;
5345;SDS011;2695;49.444;11.054;2022-12-10T05:36:59;23.10;;;13.40;;
5345;SDS011;2695;49.444;11.054;2022-12-10T05:39:27;19.20;;;13.23;;
5345;SDS011;2695;49.444;11.054;2022-12-10T05:41:55;24.40;;;14.47;;
5345;SDS011;2695;49.444;11.054;2022-12-10T05:44:25;28.00;;;14.00;;
5345;SDS011;2695;49.444;11.054;2022-12-10T05:46:53;22.97;;;13.73;;
5345;SDS011;2695;49.444;11.054;2022-12-10T05:49:21;21.83;;;13.57;;
5345;SDS011;2695;49.444;11.054;2022-12-10T05:51:49;20.20;;;13.03;;
5345;SDS011;2695;49.444;11.054;2022-12-10T05:54:17;21.90;;;13.50;;
5345;SDS011;2695;49.444;11.054;2022-12-10T05:56:45;26.53;;;13.63;;
5345;SDS011;2695;49.444;11.054;2022-12-10T05:59:13;20.37;;;12.50;;
5345;SDS011;2695;49.444;11.054;2022-12-10T06:01:44;22.60;;;13.53;;
5345;SDS011;2695;49.444;11.054;2022-12-10T06:04:12;22.47;;;13.50;;
5345;SDS011;2695;49.444;11.054;2022-12-10T06:06:40;22.10;;;13.73;;
5345;SDS011;2695;49.444;11.054;2022-12-10T06:09:10;25.90;;;12.33;;
5345;SDS011;2695;49.444;11.054;2022-12-10T06:11:39;24.50;;;14.60;;
5345;SDS011;2695;49.444;11.054;2022-12-10T06:14:08;22.30;;;13.17;;
5345;SDS011;2695;49.444;11.054;2022-12-10T06:16:38;22.73;;;14.30;;
5345;SDS011;2695;49.444;11.054;2022-12-10T06:19:08;24.00;;;14.57;;
5345;SDS011;2695;49.444;11.054;2022-12-10T06:21:37;21.73;;;12.97;;
5345;SDS011;2695;49.444;11.054;2022-12-10T06:24:06;30.97;;;14.80;;
5345;SDS011;2695;49.444;11.054;2022-12-10T06:26:34;26.20;;;15.57;;
5345;SDS011;2695;49.444;11.054;2022-12-10T06:29:02;24.87;;;14.37;;
5345;SDS011;2695;49.444;11.054;2022-12-10T06:31:32;23.77;;;14.07;;
5345;SDS011;2695;49.444;11.054;2022-12-10T06:34:00;23.40;;;15.17;;
5345;SDS011;2695;49.444;11.054;2022-12-10T06:36:30;22.40;;;13.33;;
5345;SDS011;2695;49.444;11.054;2022-12-10T06:38:58;24.20;;;14.03;;
5345;SDS011;2695;49.444;11.054;2022-12-10T06:41:26;27.33;;;14.80;;
5345;SDS011;2695;49.444;11.054;2022-12-10T06:43:55;22.87;;;13.87;;
5345;SDS011;2695;49.444;11.054;2022-12-10T06:46:25;24.40;;;14.33;;
5345;SDS011;2695;49.444;11.054;2022-12-10T06:48:57;23.70;;;14.83;;
5345;SDS011;2695;49.444;11.054;2022-12-10T06:51:25;23.10;;;13.90;;
5345;SDS011;2695;49.444;11.054;2022-12-10T06:53:55;22.27;;;14.10;;
5345;SDS011;2695;49.444;11.054;2022-12-10T06:56:23;25.53;;;13.80;;
5345;SDS011;2695;49.444;11.054;2022-12-10T06:58:51;24.03;;;14.20;;
5345;SDS011;2695;49.444;11.054;2022-12-10T07:01:22;22.80;;;13.00;;
5345;SDS011;2695;49.444;11.054;2022-12-10T07:03:53;24.00;;;13.80;;
5345;SDS011;2695;49.444;11.054;2022-12-10T07:06:23;24.77;;;15.27;;
5345;SDS011;2695;49.444;11.054;2022-12-10T07:08:52;28.23;;;16.00;;
5345;SDS011;2695;49.444;11.054;2022-12-10T07:11:22;24.60;;;13.13;;
5345;SDS011;2695;49.444;11.054;2022-12-10T07:13:51;27.50;;;14.27;;
5345;SDS011;2695;49.444;11.054;2022-12-10T07:16:20;31.03;;;14.93;;
5345;SDS011;2695;49.444;11.054;2022-12-10T07:18:49;25.03;;;14.57;;
5345;SDS011;2695;49.444;11.054;2022-12-10T07:21:19;27.83;;;14.77;;
5345;SDS011;2695;49.444;11.054;2022-12-10T07:23:49;22.67;;;13.73;;
5345;SDS011;2695;49.444;11.054;2022-12-10T07:26:17;23.83;;;14.13;;
5345;SDS011;2695;49.444;11.054;2022-12-10T07:28:47;21.83;;;13.93;;
5345;SDS011;2695;49.444;11.054;2022-12-10T07:31:19;23.60;;;14.90;;
5345;SDS011;2695;49.444;11.054;2022-12-10T07:33:49;23.40;;;13.80;;
5345;SDS011;2695;49.444;11.054;2022-12-10T07:36:18;22.20;;;13.47;;
5345;SDS011;2695;49.444;11.054;2022-12-10T07:38:48;28.40;;;15.83;;
5345;SDS011;2695;49.444;11.054;2022-12-10T07:41:18;26.63;;;15.80;;
5345;SDS011;2695;49.444;11.054;2022-12-10T07:43:48;28.20;;;15.73;;
5345;SDS011;2695;49.444;11.054;2022-12-10T07:46:18;42.67;;;14.70;;
5345;SDS011;2695;49.444;11.054;2022-12-10T07:48:48;24.67;;;14.57;;
5345;SDS011;2695;49.444;11.054;2022-12-10T07:51:17;31.00;;;15.60;;
5345;SDS011;2695;49.444;11.054;2022-12-10T07:53:47;24.00;;;14.40;;
5345;SDS011;2695;49.444;11.054;2022-12-10T07:56:17;23.97;;;14.93;;
5345;SDS011;2695;49.444;11.054;2022-12-10T07:58:49;25.27;;;14.60;;
5345;SDS011;2695;49.444;11.054;2022-12-10T08:01:18;26.60;;;14.90;;
5345;SDS011;2695;49.444;11.054;2022-12-10T08:03:49;23.10;;;13.10;;
5345;SDS011;2695;49.444;11.054;2022-12-10T08:06:18;25.93;;;15.37;;
5345;SDS011;2695;49.444;11.054;2022-12-10T08:08:48;23.97;;;14.77;;
5345;SDS011;2695;49.444;11.054;2022-12-10T08:11:18;28.20;;;15.67;;
5345;SDS011;2695;49.444;11.054;2022-12-10T08:13:48;25.27;;;15.10;;
5345;SDS011;2695;49.444;11.054;2022-12-10T08:16:23;25.37;;;16.03;;
5345;SDS011;2695;49.444;11.054;2022-12-10T08:18:53;24.13;;;14.27;;
5345;SDS011;2695;49.444;11.054;2022-12-10T08:21:23;28.93;;;15.00;;
5345;SDS011;2695;49.444;11.054;2022-12-10T08:23:53;24.43;;;15.17;;
5345;SDS011;2695;49.444;11.054;2022-12-10T08:26:23;23.50;;;13.23;;
5345;SDS011;2695;49.444;11.054;2022-12-10T08:28:54;25.00;;;15.23;;
5345;SDS011;2695;49.444;11.054;2022-12-10T08:31:23;26.60;;;15.10;;
5345;SDS011;2695;49.444;11.054;2022-12-10T08:34:00;28.13;;;15.30;;
5345;SDS011;2695;49.444;11.054;2022-12-10T08:36:29;28.00;;;17.10;;
5345;SDS011;2695;49.444;11.054;2022-12-10T08:38:57;23.83;;;14.83;;
5345;SDS011;2695;49.444;11.054;2022-12-10T08:41:26;26.10;;;15.07;;
5345;SDS011;2695;49.444;11.054;2022-12-10T08:43:55;30.70;;;15.67;;
5345;SDS011;2695;49.444;11.054;2022-12-10T08:46:23;29.03;;;16.73;;
5345;SDS011;2695;49.444;11.054;2022-12-10T08:48:52;31.83;;;17.43;;
5345;SDS011;2695;49.444;11.054;2022-12-10T08:51:21;26.37;;;15.20;;
5345;SDS011;2695;49.444;11.054;2022-12-10T08:53:49;27.10;;;15.17;;
5345;SDS011;2695;49.444;11.054;2022-12-10T08:56:17;25.53;;;13.90;;
5345;SDS011;2695;49.444;11.054;2022-12-10T08:58:45;26.83;;;15.70;;
5345;SDS011;2695;49.444;11.054;2022-12-10T09:01:16;29.50;;;16.80;;
5345;SDS011;2695;49.444;11.054;2022-12-10T09:03:45;28.10;;;15.83;;
5345;SDS011;2695;49.444;11.054;2022-12-10T09:06:14;28.17;;;15.47;;
5345;SDS011;2695;49.444;11.054;2022-12-10T09:08:43;24.50;;;15.47;;
5345;SDS011;2695;49.444;11.054;2022-12-10T09:11:13;25.33;;;14.70;;
5345;SDS011;2695;49.444;11.054;2022-12-10T09:13:42;39.63;;;20.63;;
5345;SDS011;2695;49.444;11.054;2022-12-10T09:16:10;30.60;;;16.57;;
5345;SDS011;2695;49.444;11.054;2022-12-10T09:18:40;34.33;;;16.93;;
5345;SDS011;2695;49.444;11.054;2022-12-10T09:21:10;31.50;;;16.47;;
5345;SDS011;2695;49.444;11.054;2022-12-10T09:23:39;26.10;;;16.00;;
5345;SDS011;2695;49.444;11.054;2022-12-10T09:26:08;23.03;;;14.93;;
5345;SDS011;2695;49.444;11.054;2022-12-10T09:28:38;28.20;;;15.23;;
5345;SDS011;2695;49.444;11.054;2022-12-10T09:31:07;26.77;;;15.70;;
5345;SDS011;2695;49.444;11.054;2022-12-10T09:33:47;25.73;;;15.20;;
5345;SDS011;2695;49.444;11.054;2022-12-10T09:36:17;28.30;;;15.73;;
5345;SDS011;2695;49.444;11.054;2022-12-10T09:38:47;27.03;;;16.63;;
5345;SDS011;2695;49.444;11.054;2022-12-10T09:41:20;25.43;;;16.07;;
5345;SDS011;2695;49.444;11.054;2022-12-10T09:44:08;25.70;;;16.50;;
5345;SDS011;2695;49.444;11.054;2022-12-10T09:46:46;27.40;;;17.00;;
5345;SDS011;2695;49.444;11.054;2022-12-10T09:49:23;31.70;;;16.27;;
5345;SDS011;2695;49.444;11.054;2022-12-10T09:52:00;24.13;;;14.90;;
5345;SDS011;2695;49.444;11.054;2022-12-10T09:54:32;23.90;;;15.20;;
5345;SDS011;2695;49.444;11.054;2022-12-10T09:57:03;24.73;;;15.40;;
5345;SDS011;2695;49.444;11.054;2022-12-10T09:59:35;26.17;;;15.87;;
5345;SDS011;2695;49.444;11.054;2022-12-10T10:02:12;30.30;;;16.40;;
5345;SDS011;2695;49.444;11.054;2022-12-10T10:04:50;29.67;;;16.63;;
5345;SDS011;2695;49.444;11.054;2022-12-10T10:07:24;24.87;;;16.67;;
5345;SDS011;2695;49.444;11.054;2022-12-10T10:09:57;38.37;;;16.70;;
5345;SDS011;2695;49.444;11.054;2022-12-10T10:12:31;28.53;;;16.37;;
5345;SDS011;2695;49.444;11.054;2022-12-10T10:15:09;30.77;;;17.43;;
5345;SDS011;2695;49.444;11.054;2022-12-10T10:17:40;27.33;;;15.40;;
5345;SDS011;2695;49.444;11.054;2022-12-10T10:20:13;29.07;;;16.50;;
5345;SDS011;2695;49.444;11.054;2022-12-10T10:22:42;27.73;;;17.27;;
5345;SDS011;2695;49.444;11.054;2022-12-10T10:25:12;29.50;;;16.93;;
5345;SDS011;2695;49.444;11.054;2022-12-10T10:27:42;25.73;;;16.80;;
5345;SDS011;2695;49.444;11.054;2022-12-10T10:30:13;26.93;;;16.57;;
5345;SDS011;2695;49.444;11.054;2022-12-10T10:32:45;31.80;;;17.00;;
5345;SDS011;2695;49.444;11.054;2022-12-10T10:35:28;28.57;;;17.20;;
5345;SDS011;2695;49.444;11.054;2022-12-10T10:38:00;27.00;;;17.70;;
5345;SDS011;2695;49.444;11.054;2022-12-10T10:40:38;30.43;;;16.40;;
5345;SDS011;2695;49.444;11.054;2022-12-10T10:43:12;31.53;;;16.00;;
5345;SDS011;2695;49.444;11.054;2022-12-10T10:45:47;30.80;;;17.47;;
5345;SDS011;2695;49.444;11.054;2022-12-10T10:48:18;28.97;;;17.10;;
5345;SDS011;2695;49.444;11.054;2022-12-10T10:50:50;28.30;;;16.67;;
5345;SDS011;2695;49.444;11.054;2022-12-10T10:53:29;31.53;;;18.70;;
5345;SDS011;2695;49.444;11.054;2022-12-10T10:56:04;31.73;;;17.50;;
5345;SDS011;2695;49.444;11.054;2022-12-10T10:58:34;33.80;;;18.53;;
5345;SDS011;2695;49.444;11.054;2022-12-10T11:01:04;28.40;;;17.60;;
5345;SDS011;2695;49.444;11.054;2022-12-10T11:03:35;28.03;;;17.20;;
5345;SDS011;2695;49.444;11.054;2022-12-10T11:06:14;30.00;;;18.00;;
5345;SDS011;2695;49.444;11.054;2022-12-10T11:08:43;26.90;;;17.57;;
5345;SDS011;2695;49.444;11.054;2022-12-10T11:11:17;26.47;;;16.20;;
5345;SDS011;2695;49.444;11.054;2022-12-10T11:13:47;36.50;;;17.53;;
5345;SDS011;2695;49.444;11.054;2022-12-10T11:16:18;34.80;;;17.30;;
5345;SDS011;2695;49.444;11.054;2022-12-10T11:18:56;27.10;;;16.20;;
5345;SDS011;2695;49.444;11.054;2022-12-10T11:21:30;30.13;;;16.87;;
5345;SDS011;2695;49.444;11.054;2022-12-10T11:24:00;27.37;;;16.50;;
5345;SDS011;2695;49.444;11.054;2022-12-10T11:26:40;29.10;;;16.70;;
5345;SDS011;2695;49.444;11.054;2022-12-10T11:29:26;33.57;;;17.50;;
5345;SDS011;2695;49.444;11.054;2022-12-10T11:32:20;33.63;;;17.20;;
5345;SDS011;2695;49.444;11.054;2022-12-10T11:35:00;28.60;;;17.17;;
5345;SDS011;2695;49.444;11.054;2022-12-10T11:37:38;31.10;;;17.13;;
5345;SDS011;2695;49.444;11.054;2022-12-10T11:40:17;27.47;;;16.43;;
5345;SDS011;2695;49.444;11.054;2022-12-10T11:43:04;35.00;;;18.37;;
5345;SDS011;2695;49.444;11.054;2022-12-10T11:46:03;26.80;;;17.10;;
5345;SDS011;2695;49.444;11.054;2022-12-10T11:48:44;29.53;;;17.23;;
5345;SDS011;2695;49.444;11.054;2022-12-10T11:51:33;28.97;;;17.83;;
5345;SDS011;2695;49.444;11.054;2022-12-10T11:54:18;29.63;;;18.43;;
5345;SDS011;2695;49.444;11.054;2022-12-10T11:56:58;32.70;;;18.33;;
5345;SDS011;2695;49.444;11.054;2022-12-10T11:59:33;34.63;;;18.57;;
5345;SDS011;2695;49.444;11.054;2022-12-10T12:02:36;26.40;;;17.70;;
5345;SDS011;2695;49.444;11.054;2022-12-10T12:05:35;34.63;;;17.70;;
5345;SDS011;2695;49.444;11.054;2022-12-10T12:08:12;37.67;;;18.10;;
5345;SDS011;2695;49.444;11.054;2022-12-10T12:11:03;31.07;;;18.23;;
5345;SDS011;2695;49.444;11.054;2022-12-10T12:13:44;31.30;;;20.00;;
5345;SDS011;2695;49.444;11.054;2022-12-10T12:16:20;34.83;;;18.70;;
5345;SDS011;2695;49.444;11.054;2022-12-10T12:18:54;31.37;;;19.00;;
5345;SDS011;2695;49.444;11.054;2022-12-10T12:21:26;35.73;;;19.30;;
5345;SDS011;2695;49.444;11.054;2022-12-10T12:23:55;32.23;;;19.33;;
5345;SDS011;2695;49.444;11.054;2022-12-10T12:26:35;31.80;;;18.10;;
5345;SDS011;2695;49.444;11.054;2022-12-10T12:29:10;34.07;;;19.33;;
5345;SDS011;2695;49.444;11.054;2022-12-10T12:31:44;35.13;;;19.77;;
5345;SDS011;2695;49.444;11.054;2022-12-10T12:34:17;31.57;;;19.50;;
5345;SDS011;2695;49.444;11.054;2022-12-10T12:36:50;43.57;;;20.73;;
5345;SDS011;2695;49.444;11.054;2022-12-10T12:39:23;37.43;;;19.30;;
5345;SDS011;2695;49.444;11.054;2022-12-10T12:42:01;31.53;;;19.23;;
5345;SDS011;2695;49.444;11.054;2022-12-10T12:44:41;29.37;;;18.43;;
5345;SDS011;2695;49.444;11.054;2022-12-10T12:47:26;36.57;;;20.63;;
5345;SDS011;2695;49.444;11.054;2022-12-10T12:50:02;33.37;;;19.40;;
5345;SDS011;2695;49.444;11.054;2022-12-10T12:52:34;36.13;;;18.57;;
5345;SDS011;2695;49.444;11.054;2022-12-10T12:55:11;35.70;;;18.73;;
5345;SDS011;2695;49.444;11.054;2022-12-10T12:57:46;41.63;;;20.43;;
5345;SDS011;2695;49.444;11.054;2022-12-10T13:00:19;35.07;;;20.03;;
5345;SDS011;2695;49.444;11.054;2022-12-10T13:02:58;33.63;;;18.83;;
5345;SDS011;2695;49.444;11.054;2022-12-10T13:05:36;36.10;;;18.63;;
5345;SDS011;2695;49.444;11.054;2022-12-10T13:08:22;35.30;;;18.63;;
5345;SDS011;2695;49.444;11.054;2022-12-10T13:11:00;34.40;;;18.30;;
5345;SDS011;2695;49.444;11.054;2022-12-10T13:16:46;34.20;;;19.67;;
5345;SDS011;2695;49.444;11.054;2022-12-10T13:19:28;30.70;;;17.40;;
5345;SDS011;2695;49.444;11.054;2022-12-10T13:22:00;35.33;;;18.40;;
5345;SDS011;2695;49.444;11.054;2022-12-10T13:27:39;40.83;;;17.47;;
5345;SDS011;2695;49.444;11.054;2022-12-10T13:30:31;31.20;;;18.53;;
5345;SDS011;2695;49.444;11.054;2022-12-10T13:35:55;36.50;;;18.20;;
5345;SDS011;2695;49.444;11.054;2022-12-10T13:38:38;33.10;;;17.70;;
5345;SDS011;2695;49.444;11.054;2022-12-10T13:41:08;34.87;;;18.27;;
5345;SDS011;2695;49.444;11.054;2022-12-10T13:43:55;30.87;;;17.13;;
5345;SDS011;2695;49.444;11.054;2022-12-10T13:46:56;32.40;;;17.23;;
5345;SDS011;2695;49.444;11.054;2022-12-10T13:49:28;30.27;;;17.50;;
5345;SDS011;2695;49.444;11.054;2022-12-10T13:51:58;32.03;;;18.63;;
5345;SDS011;2695;49.444;11.054;2022-12-10T13:54:43;34.80;;;18.83;;
5345;SDS011;2695;49.444;11.054;2022-12-10T13:57:32;33.17;;;19.10;;
5345;SDS011;2695;49.444;11.054;2022-12-10T14:00:14;31.80;;;18.47;;
5345;SDS011;2695;49.444;11.054;2022-12-10T14:03:00;33.53;;;18.70;;
5345;SDS011;2695;49.444;11.054;2022-12-10T14:05:53;36.53;;;19.23;;
5345;SDS011;2695;49.444;11.054;2022-12-10T14:08:36;36.77;;;18.80;;
5345;SDS011;2695;49.444;11.054;2022-12-10T14:11:12;38.27;;;18.80;;
5345;SDS011;2695;49.444;11.054;2022-12-10T14:13:49;31.93;;;19.97;;
5345;SDS011;2695;49.444;11.054;2022-12-10T14:16:22;39.70;;;20.70;;
5345;SDS011;2695;49.444;11.054;2022-12-10T14:18:57;40.60;;;20.33;;
5345;SDS011;2695;49.444;11.054;2022-12-10T14:21:32;30.27;;;18.23;;
5345;SDS011;2695;49.444;11.054;2022-12-10T14:24:02;36.67;;;19.20;;
5345;SDS011;2695;49.444;11.054;2022-12-10T14:27:01;30.47;;;17.10;;
5345;SDS011;2695;49.444;11.054;2022-12-10T14:30:38;36.07;;;19.83;;
5345;SDS011;2695;49.444;11.054;2022-12-10T14:33:48;33.33;;;19.13;;
5345;SDS011;2695;49.444;11.054;2022-12-10T14:36:23;33.70;;;19.53;;
5345;SDS011;2695;49.444;11.054;2022-12-10T14:38:55;31.30;;;16.80;;
5345;SDS011;2695;49.444;11.054;2022-12-10T14:41:31;38.77;;;20.37;;
5345;SDS011;2695;49.444;11.054;2022-12-10T14:44:06;39.63;;;20.73;;
5345;SDS011;2695;49.444;11.054;2022-12-10T14:46:46;30.23;;;17.70;;
5345;SDS011;2695;49.444;11.054;2022-12-10T14:49:25;33.27;;;18.20;;
5345;SDS011;2695;49.444;11.054;2022-12-10T14:51:56;34.00;;;18.00;;
5345;SDS011;2695;49.444;11.054;2022-12-10T14:54:27;31.97;;;18.20;;
5345;SDS011;2695;49.444;11.054;2022-12-10T14:57:01;31.60;;;18.30;;
5345;SDS011;2695;49.444;11.054;2022-12-10T14:59:48;30.70;;;18.27;;
5345;SDS011;2695;49.444;11.054;2022-12-10T15:02:38;31.80;;;17.60;;
5345;SDS011;2695;49.444;11.054;2022-12-10T15:05:23;27.83;;;18.60;;
5345;SDS011;2695;49.444;11.054;2022-12-10T15:08:13;35.60;;;17.53;;
5345;SDS011;2695;49.444;11.054;2022-12-10T15:10:46;30.33;;;17.23;;
5345;SDS011;2695;49.444;11.054;2022-12-10T15:13:33;31.10;;;17.03;;
5345;SDS011;2695;49.444;11.054;2022-12-10T15:16:05;32.20;;;18.93;;
5345;SDS011;2695;49.444;11.054;2022-12-10T15:18:43;33.13;;;17.80;;
5345;SDS011;2695;49.444;11.054;2022-12-10T15:21:19;27.57;;;16.37;;